Time;durP1;ratioP1;P1;durP2;ratioP2;P2;SDS_P1;SDS_P2;PMS_P1;PMS_P2;Temp;Humidity;BMP_temperature;BMP_pressure;BME280_temperature;BME280_humidity;BME280_pressure;Samples;Min_cycle;Max_cycle;Signal;HPM_P1;HPM_P2
2021/12/10 00:01:49;;;;;;;116.87;55.50;;;;;;;2.83;100.00;93823.91;5087840;28;20620;-78
2021/12/10 00:04:20;;;;;;;122.77;54.67;;;;;;;2.78;100.00;93836.53;5088124;28;20208;-78
2021/12/10 00:07:21;;;;;;;118.70;54.93;;;;;;;2.77;100.00;93834.94;5088450;28;20668;-77
2021/12/10 00:09:53;;;;;;;70.50;35.37;;;;;;;2.74;100.00;93832.00;5087443;28;20204;-78
2021/12/10 00:12:40;;;;;;;67.10;35.53;;;;;;;2.72;100.00;93813.41;5088274;28;20213;-79
2021/12/10 00:15:11;;;;;;;58.30;27.93;;;;;;;2.78;100.00;93810.88;5086188;28;20280;-78
2021/12/10 00:17:40;;;;;;;55.30;30.07;;;;;;;2.81;100.00;93807.94;5088336;28;20215;-78
2021/12/10 00:20:10;;;;;;;58.33;30.27;;;;;;;2.88;100.00;93817.44;5088045;28;20307;-77
2021/12/10 00:22:42;;;;;;;48.97;27.33;;;;;;;2.83;100.00;93812.88;5088417;28;20659;-77
2021/12/10 00:25:17;;;;;;;53.97;29.90;;;;;;;2.83;100.00;93805.97;5087504;28;20216;-77
2021/12/10 00:27:46;;;;;;;65.87;34.30;;;;;;;2.85;100.00;93811.72;5088576;28;20200;-76
2021/12/10 00:30:19;;;;;;;67.23;35.37;;;;;;;2.91;100.00;93788.84;5087597;28;20228;-77
2021/12/10 00:32:57;;;;;;;68.90;35.07;;;;;;;2.95;100.00;93784.88;5088630;28;20637;-80
2021/12/10 00:35:28;;;;;;;65.33;34.40;;;;;;;2.97;100.00;93798.31;5088792;28;20196;-79
2021/12/10 00:37:56;;;;;;;60.40;31.13;;;;;;;3.00;100.00;93810.78;5084753;28;20574;-78
2021/12/10 00:40:27;;;;;;;53.70;29.83;;;;;;;2.91;100.00;93811.94;5086697;28;20231;-77
2021/12/10 00:42:56;;;;;;;58.67;31.43;;;;;;;2.85;100.00;93800.66;5088204;28;20744;-77
2021/12/10 00:45:26;;;;;;;68.40;35.83;;;;;;;2.88;100.00;93790.00;5087758;28;20287;-77
2021/12/10 00:47:55;;;;;;;70.87;36.17;;;;;;;2.93;100.00;93807.38;5087670;28;20221;-77
2021/12/10 00:50:26;;;;;;;62.87;31.77;;;;;;;2.93;100.00;93804.81;5087132;28;20209;-76
2021/12/10 00:52:56;;;;;;;53.57;29.20;;;;;;;2.90;100.00;93792.38;5088224;28;20545;-75
2021/12/10 00:55:27;;;;;;;62.07;33.33;;;;;;;2.99;100.00;93796.34;5087253;28;20232;-77
2021/12/10 00:57:58;;;;;;;60.83;33.33;;;;;;;2.92;100.00;93791.19;5087270;28;20311;-77
2021/12/10 01:00:29;;;;;;;70.47;36.00;;;;;;;2.97;100.00;93796.56;5086598;28;20802;-78
2021/12/10 01:02:58;;;;;;;65.63;35.10;;;;;;;2.99;100.00;93780.97;5086583;28;20258;-78
2021/12/10 01:05:27;;;;;;;73.83;38.07;;;;;;;3.00;100.00;93783.31;5088292;28;20825;-76
2021/12/10 01:07:56;;;;;;;64.13;35.53;;;;;;;3.09;100.00;93797.56;5087375;28;20243;-79
2021/12/10 01:10:30;;;;;;;52.47;29.60;;;;;;;3.14;100.00;93792.66;5086887;28;20204;-78
2021/12/10 01:13:00;;;;;;;52.00;26.93;;;;;;;3.10;100.00;93791.44;5087258;28;20235;-78
2021/12/10 01:15:45;;;;;;;51.47;27.77;;;;;;;3.03;100.00;93782.94;5087653;28;20201;-77
2021/12/10 01:24:14;;;;;;;53.60;29.17;;;;;;;3.09;100.00;93800.13;5084927;28;20303;-78
2021/12/10 01:27:00;;;;;;;57.17;30.73;;;;;;;3.13;100.00;93783.38;5087995;28;20208;-77
2021/12/10 01:29:33;;;;;;;65.53;34.80;;;;;;;3.11;100.00;93782.78;5087249;28;20205;-78
2021/12/10 01:32:03;;;;;;;59.83;33.47;;;;;;;3.09;100.00;93776.25;5087558;28;20200;-78
2021/12/10 01:34:32;;;;;;;62.43;34.40;;;;;;;3.10;100.00;93765.78;5088992;28;20437;-78
2021/12/10 01:37:01;;;;;;;64.50;33.90;;;;;;;3.06;100.00;93758.69;5091403;28;20207;-80
2021/12/10 01:39:34;;;;;;;57.30;30.93;;;;;;;3.02;100.00;93754.91;5090968;28;20247;-78
2021/12/10 01:42:14;;;;;;;58.60;32.13;;;;;;;3.09;100.00;93753.94;5088695;28;20279;-77
2021/12/10 01:44:45;;;;;;;59.87;33.23;;;;;;;3.15;100.00;93753.16;5087221;28;20207;-76
2021/12/10 01:47:16;;;;;;;54.90;29.97;;;;;;;3.15;100.00;93748.03;5090529;28;20608;-77
2021/12/10 01:49:44;;;;;;;65.30;33.90;;;;;;;3.24;100.00;93758.91;5091607;28;20234;-78
2021/12/10 01:52:15;;;;;;;58.53;30.47;;;;;;;3.30;100.00;93763.25;5090491;28;20612;-78
2021/12/10 01:54:48;;;;;;;49.83;28.00;;;;;;;3.21;100.00;93754.16;5090952;28;20236;-77
2021/12/10 01:57:20;;;;;;;51.23;28.43;;;;;;;3.17;100.00;93740.16;5090401;28;20668;-76
2021/12/10 01:59:49;;;;;;;56.20;30.33;;;;;;;3.14;100.00;93741.31;5090294;28;20239;-78
2021/12/10 02:02:21;;;;;;;58.60;30.03;;;;;;;3.15;100.00;93736.97;5089945;28;20208;-76
2021/12/10 02:04:49;;;;;;;56.53;30.47;;;;;;;3.17;100.00;93733.25;5091030;28;20215;-76
2021/12/10 02:07:21;;;;;;;55.40;31.23;;;;;;;3.14;100.00;93743.91;5090434;28;20208;-76
2021/12/10 02:09:50;;;;;;;57.20;33.03;;;;;;;3.11;100.00;93744.28;5090910;28;20196;-76
2021/12/10 02:12:20;;;;;;;66.20;34.20;;;;;;;3.09;100.00;93741.09;5090450;28;20215;-75
2021/12/10 02:14:57;;;;;;;79.27;37.67;;;;;;;3.12;100.00;93734.78;5090760;28;20226;-78
2021/12/10 02:17:26;;;;;;;100.77;46.47;;;;;;;3.16;100.00;93720.59;5090104;28;21401;-78
2021/12/10 02:19:54;;;;;;;112.30;50.43;;;;;;;3.19;100.00;93717.63;5089575;28;20696;-78
2021/12/10 02:22:24;;;;;;;96.57;46.97;;;;;;;3.23;100.00;93708.56;5090327;28;20227;-77
2021/12/10 02:24:53;;;;;;;92.40;45.10;;;;;;;3.26;100.00;93706.38;5090863;28;20201;-76
2021/12/10 02:27:21;;;;;;;85.70;41.83;;;;;;;3.30;100.00;93696.50;5089409;28;20209;-76
2021/12/10 02:29:49;;;;;;;77.57;42.13;;;;;;;3.28;100.00;93683.09;5089786;28;20238;-76
2021/12/10 02:32:16;;;;;;;76.90;39.17;;;;;;;3.32;100.00;93691.97;5089182;28;20674;-78
2021/12/10 02:34:46;;;;;;;73.07;36.03;;;;;;;3.13;100.00;93690.97;5090413;28;20664;-78
2021/12/10 02:37:14;;;;;;;62.07;35.33;;;;;;;3.12;100.00;93707.34;5089827;28;20215;-77
2021/12/10 02:39:44;;;;;;;67.73;35.13;;;;;;;3.16;100.00;93700.84;5090839;28;20656;-78
2021/12/10 02:42:12;;;;;;;74.20;37.80;;;;;;;3.27;100.00;93709.72;5090122;28;20643;-77
2021/12/10 02:44:41;;;;;;;77.03;40.50;;;;;;;3.19;100.00;93722.75;5090801;28;20212;-78
2021/12/10 02:47:09;;;;;;;71.47;37.20;;;;;;;3.22;100.00;93732.63;5088674;28;20257;-78
2021/12/10 02:49:38;;;;;;;58.83;31.73;;;;;;;3.21;100.00;93749.03;5087788;28;20199;-78
2021/12/10 02:52:10;;;;;;;58.10;29.80;;;;;;;3.15;100.00;93745.47;5090106;28;20582;-79
2021/12/10 02:54:38;;;;;;;58.50;30.37;;;;;;;3.19;100.00;93745.88;5091074;28;20327;-79
2021/12/10 02:57:11;;;;;;;63.93;32.07;;;;;;;3.18;100.00;93732.22;5088757;28;20207;-77
2021/12/10 02:59:39;;;;;;;64.27;33.97;;;;;;;3.13;100.00;93741.50;5090887;28;20216;-78
2021/12/10 03:02:11;;;;;;;71.60;37.57;;;;;;;3.15;100.00;93740.31;5089909;28;20242;-77
2021/12/10 03:04:40;;;;;;;72.60;36.07;;;;;;;3.23;100.00;93735.00;5092114;28;20196;-77
2021/12/10 03:07:19;;;;;;;64.60;35.17;;;;;;;3.27;100.00;93732.84;5089893;28;20695;-77
2021/12/10 03:09:49;;;;;;;69.47;36.37;;;;;;;3.23;100.00;93711.91;5090072;28;20296;-79
2021/12/10 03:12:23;;;;;;;81.57;40.47;;;;;;;3.28;100.00;93724.97;5089112;28;20197;-78
2021/12/10 03:14:55;;;;;;;103.13;48.87;;;;;;;3.33;100.00;93732.84;5086293;28;20651;-78
2021/12/10 03:17:26;;;;;;;106.23;53.37;;;;;;;3.32;100.00;93723.56;5088607;28;20679;-78
2021/12/10 03:19:56;;;;;;;137.20;66.37;;;;;;;3.38;100.00;93725.34;5089096;28;20212;-78
2021/12/10 03:22:24;;;;;;;121.43;63.10;;;;;;;3.32;100.00;93728.69;5089698;28;20226;-78
2021/12/10 03:24:53;;;;;;;100.50;52.23;;;;;;;3.26;100.00;93724.34;5089651;28;20200;-78
2021/12/10 03:27:24;;;;;;;103.33;52.33;;;;;;;3.32;100.00;93723.56;5089115;28;20259;-78
2021/12/10 03:29:54;;;;;;;87.00;44.77;;;;;;;3.24;100.00;93717.81;5089545;28;20204;-79
2021/12/10 03:32:25;;;;;;;83.47;42.87;;;;;;;3.30;100.00;93722.19;5088502;28;20204;-78
2021/12/10 03:34:54;;;;;;;58.70;33.57;;;;;;;3.27;100.00;93718.22;5089393;28;20655;-78
2021/12/10 03:37:21;;;;;;;58.67;33.20;;;;;;;3.25;100.00;93720.22;5088848;28;20228;-78
2021/12/10 03:39:50;;;;;;;55.57;30.83;;;;;;;3.28;100.00;93714.69;5089081;28;20232;-79
2021/12/10 03:42:19;;;;;;;63.30;35.37;;;;;;;3.28;100.00;93724.97;5088607;28;21049;-79
2021/12/10 03:44:49;;;;;;;60.67;33.57;;;;;;;3.26;100.00;93734.59;5089826;28;20200;-78
2021/12/10 03:47:18;;;;;;;67.37;37.10;;;;;;;3.30;100.00;93735.81;5088312;28;20208;-78
2021/12/10 03:49:46;;;;;;;67.47;35.90;;;;;;;3.37;100.00;93740.97;5088916;28;20197;-79
2021/12/10 03:52:14;;;;;;;63.57;34.87;;;;;;;3.42;100.00;93726.53;5088354;28;20213;-79
2021/12/10 03:54:43;;;;;;;59.83;33.97;;;;;;;3.43;100.00;93740.16;5088454;28;20574;-79
2021/12/10 03:57:13;;;;;;;51.00;27.23;;;;;;;3.37;100.00;93735.81;5087253;28;20284;-79
2021/12/10 03:59:44;;;;;;;55.40;30.27;;;;;;;3.28;100.00;93731.84;5088461;28;20250;-79
2021/12/10 04:02:14;;;;;;;53.73;29.47;;;;;;;3.31;100.00;93734.84;5088487;28;20220;-80
2021/12/10 04:04:46;;;;;;;63.13;31.50;;;;;;;3.31;100.00;93749.44;5089422;28;20247;-79
2021/12/10 04:07:19;;;;;;;50.67;29.60;;;;;;;3.38;100.00;93738.19;5088608;28;20843;-79
2021/12/10 04:09:48;;;;;;;50.20;29.07;;;;;;;3.41;100.00;93711.31;5088875;28;20265;-79
2021/12/10 04:12:17;;;;;;;53.27;29.43;;;;;;;3.50;100.00;93712.69;5088788;28;20659;-78
2021/12/10 04:14:47;;;;;;;51.67;29.43;;;;;;;3.51;100.00;93716.88;5088547;28;20270;-77
2021/12/10 04:17:20;;;;;;;60.10;33.53;;;;;;;3.50;100.00;93735.00;5087234;28;20197;-78
2021/12/10 04:19:50;;;;;;;68.37;34.03;;;;;;;3.50;100.00;93743.53;5083615;28;20670;-78
2021/12/10 04:22:20;;;;;;;63.90;34.23;;;;;;;3.53;100.00;93726.91;5087448;28;20643;-77
2021/12/10 04:24:48;;;;;;;76.63;39.30;;;;;;;3.50;100.00;93743.53;5088623;28;20201;-76
2021/12/10 04:27:17;;;;;;;88.10;45.23;;;;;;;3.45;100.00;93753.59;5087747;28;20299;-76
2021/12/10 04:29:46;;;;;;;95.50;47.60;;;;;;;3.47;100.00;93740.53;5089029;28;20196;-79
2021/12/10 04:32:16;;;;;;;82.80;45.73;;;;;;;3.56;100.00;93744.50;5087323;28;20212;-77
2021/12/10 04:34:44;;;;;;;99.90;52.73;;;;;;;3.60;100.00;93743.13;5088529;28;20205;-77
2021/12/10 04:37:14;;;;;;;99.60;53.30;;;;;;;3.59;100.00;93747.47;5086937;28;20205;-77
2021/12/10 04:39:46;;;;;;;101.30;54.43;;;;;;;3.64;100.00;93744.31;5087217;28;20261;-76
2021/12/10 04:42:15;;;;;;;101.30;53.83;;;;;;;3.71;100.00;93750.25;5087236;28;20326;-76
2021/12/10 04:44:43;;;;;;;108.87;57.70;;;;;;;3.60;100.00;93745.69;5087850;28;20643;-78
2021/12/10 04:47:11;;;;;;;125.57;61.43;;;;;;;3.67;100.00;93746.47;5086952;28;20663;-73
2021/12/10 04:49:41;;;;;;;110.57;57.03;;;;;;;3.60;100.00;93743.13;5087768;28;20228;-73
2021/12/10 04:52:10;;;;;;;115.80;62.03;;;;;;;3.56;100.00;93747.06;5087743;28;20211;-75
2021/12/10 04:54:38;;;;;;;109.23;55.50;;;;;;;3.51;100.00;93754.59;5086562;28;20352;-76
2021/12/10 04:57:08;;;;;;;95.03;51.13;;;;;;;3.66;100.00;93750.84;5083968;28;20280;-74
2021/12/10 04:59:39;;;;;;;77.60;42.50;;;;;;;3.69;100.00;93745.31;5083625;28;20694;-73
2021/12/10 05:02:10;;;;;;;79.33;42.63;;;;;;;3.64;100.00;93739.16;5084063;28;20213;-72
2021/12/10 05:04:40;;;;;;;81.70;42.03;;;;;;;3.74;100.00;93755.78;5086778;28;20196;-73
2021/12/10 05:07:09;;;;;;;79.17;42.50;;;;;;;3.81;100.00;93740.38;5086096;28;20279;-73
2021/12/10 05:09:37;;;;;;;72.57;42.07;;;;;;;3.90;100.00;93752.78;5087242;28;20207;-74
2021/12/10 05:12:05;;;;;;;75.60;41.03;;;;;;;3.84;100.00;93753.59;5087338;28;20261;-73
2021/12/10 05:14:35;;;;;;;72.93;39.93;;;;;;;3.81;100.00;93748.06;5089469;28;20200;-75
2021/12/10 05:17:07;;;;;;;76.83;41.07;;;;;;;3.79;100.00;93752.59;5089579;28;20193;-76
2021/12/10 05:19:38;;;;;;;77.20;41.63;;;;;;;3.82;100.00;93750.44;5090547;28;20199;-72
2021/12/10 05:22:10;;;;;;;71.93;40.03;;;;;;;3.89;100.00;93753.00;5088567;28;20695;-78
2021/12/10 05:24:38;;;;;;;88.40;46.50;;;;;;;3.87;100.00;93748.03;5090664;28;20288;-73
2021/12/10 05:27:06;;;;;;;84.10;44.30;;;;;;;3.93;100.00;93754.16;5089492;28;20193;-73
2021/12/10 05:29:35;;;;;;;72.83;42.87;;;;;;;3.91;100.00;93762.09;5090818;28;20305;-73
2021/12/10 05:32:05;;;;;;;81.90;44.63;;;;;;;3.95;100.00;93760.69;5089278;28;20196;-73
2021/12/10 05:34:35;;;;;;;80.33;43.80;;;;;;;3.97;100.00;93760.50;5091028;28;20552;-73
2021/12/10 05:37:03;;;;;;;71.03;39.53;;;;;;;3.98;100.00;93754.38;5088871;28;20591;-73
2021/12/10 05:39:33;;;;;;;73.17;41.00;;;;;;;4.02;100.00;93745.25;5091383;28;20200;-73
2021/12/10 05:42:04;;;;;;;76.97;41.30;;;;;;;3.98;100.00;93736.38;5090914;28;20300;-73
2021/12/10 05:44:32;;;;;;;81.60;44.63;;;;;;;4.00;100.00;93750.63;5085711;28;20201;-74
2021/12/10 05:47:01;;;;;;;77.33;42.37;;;;;;;4.02;100.00;93734.97;5090110;28;20205;-73
2021/12/10 05:49:29;;;;;;;75.70;41.60;;;;;;;4.04;100.00;93747.66;5091309;28;20197;-73
2021/12/10 05:51:56;;;;;;;71.60;38.57;;;;;;;4.00;100.00;93742.91;5090899;28;20205;-73
2021/12/10 05:54:27;;;;;;;58.90;32.53;;;;;;;4.00;100.00;93726.69;5090647;28;20687;-73
2021/12/10 05:56:57;;;;;;;57.17;31.33;;;;;;;4.00;100.00;93739.53;5090684;28;20201;-73
2021/12/10 05:59:25;;;;;;;57.57;31.87;;;;;;;3.95;100.00;93737.56;5090623;28;20197;-73
2021/12/10 06:01:53;;;;;;;50.23;28.40;;;;;;;3.92;100.00;93725.13;5090288;28;20691;-73
2021/12/10 06:04:26;;;;;;;53.30;29.47;;;;;;;4.00;100.00;93742.13;5090253;28;20205;-73
2021/12/10 06:06:55;;;;;;;59.50;30.80;;;;;;;4.04;100.00;93729.66;5091080;28;20204;-73
2021/12/10 06:09:24;;;;;;;61.07;30.90;;;;;;;4.00;100.00;93713.84;5090440;28;20211;-73
2021/12/10 06:11:52;;;;;;;56.30;31.97;;;;;;;3.99;100.00;93753.38;5090482;28;20390;-73
2021/12/10 06:14:21;;;;;;;54.83;31.57;;;;;;;4.03;100.00;93739.13;5089764;28;20679;-72
2021/12/10 06:16:52;;;;;;;90.27;47.90;;;;;;;4.03;100.00;93726.28;5090917;28;20275;-73
2021/12/10 06:19:21;;;;;;;69.80;37.57;;;;;;;3.96;100.00;93726.28;5089472;28;21802;-71
2021/12/10 06:21:49;;;;;;;67.23;35.50;;;;;;;3.87;100.00;93749.81;5089968;28;20224;-71
2021/12/10 06:24:18;;;;;;;56.13;31.33;;;;;;;3.93;100.00;93756.72;5090148;28;20208;-72
2021/12/10 06:26:46;;;;;;;48.33;27.93;;;;;;;4.03;100.00;93734.00;5091056;28;20201;-71
2021/12/10 06:29:15;;;;;;;55.27;30.83;;;;;;;4.06;100.00;93761.88;5089502;28;20925;-72
2021/12/10 06:31:45;;;;;;;54.10;28.93;;;;;;;4.03;100.00;93728.06;5090059;28;20585;-72
2021/12/10 06:34:14;;;;;;;53.47;28.87;;;;;;;4.03;100.00;93739.13;5089686;28;20220;-72
2021/12/10 06:36:42;;;;;;;44.60;25.80;;;;;;;4.13;100.00;93746.44;5090608;28;20204;-72
2021/12/10 06:39:11;;;;;;;43.27;25.47;;;;;;;4.16;100.00;93738.31;5089473;28;20236;-72
2021/12/10 06:41:40;;;;;;;44.77;26.63;;;;;;;4.19;100.00;93732.75;5090084;28;20313;-71
2021/12/10 06:44:08;;;;;;;48.17;26.33;;;;;;;4.26;100.00;93710.41;5089287;28;20287;-71
2021/12/10 06:46:38;;;;;;;48.13;26.40;;;;;;;4.36;100.00;93723.63;5090511;28;20342;-81
2021/12/10 06:49:08;;;;;;;42.73;25.93;;;;;;;4.31;100.00;93716.53;5090154;28;20204;-85
2021/12/10 06:51:36;;;;;;;47.37;28.40;;;;;;;4.26;100.00;93716.34;5089681;28;20642;-84
2021/12/10 06:54:05;;;;;;;51.37;27.60;;;;;;;4.28;100.00;93740.06;5090628;28;20241;-83
2021/12/10 06:56:35;;;;;;;47.03;28.40;;;;;;;4.30;100.00;93722.66;5085711;28;20204;-84
2021/12/10 06:59:03;;;;;;;58.40;31.13;;;;;;;4.36;100.00;93726.19;5091652;28;20667;-85
2021/12/10 07:01:34;;;;;;;49.93;29.00;;;;;;;4.45;100.00;93736.06;5085170;28;20225;-84
2021/12/10 07:04:09;;;;;;;50.63;27.57;;;;;;;4.47;100.00;93739.22;5091165;28;20671;-84
2021/12/10 07:06:40;;;;;;;48.50;28.77;;;;;;;4.46;100.00;93734.28;5085905;28;20251;-83
2021/12/10 07:09:13;;;;;;;47.97;28.67;;;;;;;4.53;100.00;93725.53;5091495;28;20199;-84
2021/12/10 07:11:42;;;;;;;45.37;26.87;;;;;;;4.51;100.00;93742.97;5091516;28;20192;-84
2021/12/10 07:14:11;;;;;;;55.30;32.07;;;;;;;4.53;100.00;93746.13;5090785;28;20288;-83
2021/12/10 07:16:38;;;;;;;120.40;61.10;;;;;;;4.43;100.00;93726.97;5091102;28;20290;-84
2021/12/10 07:19:08;;;;;;;146.10;81.77;;;;;;;4.60;100.00;93746.09;5090442;28;20648;-81
2021/12/10 07:21:38;;;;;;;142.57;72.40;;;;;;;4.67;100.00;93749.44;5089466;28;20311;-77
2021/12/10 07:24:08;;;;;;;113.00;62.80;;;;;;;4.63;100.00;93750.84;5086020;28;20195;-80
2021/12/10 07:26:37;;;;;;;129.77;68.40;;;;;;;4.63;100.00;93742.31;5091857;28;20209;-80
2021/12/10 07:29:08;;;;;;;124.70;65.13;;;;;;;4.69;100.00;93751.81;5090934;28;20189;-80
2021/12/10 07:31:37;;;;;;;91.90;52.10;;;;;;;4.53;100.00;93743.53;5091282;28;20288;-79
2021/12/10 07:34:06;;;;;;;167.33;93.03;;;;;;;4.53;100.00;93711.91;5090705;28;20205;-80
2021/12/10 07:36:35;;;;;;;128.57;66.43;;;;;;;4.47;100.00;93718.63;5091721;28;20241;-80
2021/12/10 07:39:06;;;;;;;99.57;54.67;;;;;;;4.59;100.00;93740.16;5091299;28;20212;-82
2021/12/10 07:41:34;;;;;;;113.83;61.20;;;;;;;4.62;100.00;93733.81;5091603;28;20307;-79
2021/12/10 07:44:03;;;;;;;103.17;53.57;;;;;;;4.73;100.00;93740.91;5084639;28;20213;-79
2021/12/10 07:46:34;;;;;;;96.07;53.57;;;;;;;4.80;100.00;93753.72;5080641;28;20205;-79
2021/12/10 07:49:04;;;;;;;78.73;43.57;;;;;;;4.82;100.00;93751.75;5071446;28;20239;-79
2021/12/10 07:51:33;;;;;;;115.10;59.50;;;;;;;4.73;100.00;93737.53;5089119;28;20211;-80
2021/12/10 07:54:02;;;;;;;127.67;67.80;;;;;;;4.79;100.00;93727.19;5090707;28;20311;-81
2021/12/10 07:56:33;;;;;;;117.87;63.73;;;;;;;4.84;100.00;93745.41;5086612;28;20267;-80
2021/12/10 07:59:02;;;;;;;139.27;74.27;;;;;;;4.97;100.00;93734.25;5084425;28;20205;-80
2021/12/10 08:01:31;;;;;;;148.60;80.03;;;;;;;5.02;100.00;93734.44;5089413;28;20221;-80
2021/12/10 08:04:01;;;;;;;147.50;80.93;;;;;;;5.06;100.00;93736.38;5091063;28;20710;-79
2021/12/10 08:06:31;;;;;;;184.20;98.50;;;;;;;5.13;100.00;93739.72;5091357;28;20218;-80
2021/12/10 08:08:58;;;;;;;219.50;114.37;;;;;;;5.10;100.00;93745.28;5090782;28;20660;-78
2021/12/10 08:11:25;;;;;;;206.23;111.57;;;;;;;5.18;100.00;93751.16;5091365;28;20656;-79
2021/12/10 08:13:54;;;;;;;183.80;98.97;;;;;;;5.22;100.00;93753.13;5086895;28;20201;-80
2021/12/10 08:16:23;;;;;;;174.57;94.97;;;;;;;5.25;100.00;93739.84;5091921;28;20279;-80
2021/12/10 08:18:51;;;;;;;162.40;86.43;;;;;;;5.26;100.00;93733.69;5092683;28;20667;-80
2021/12/10 08:21:20;;;;;;;142.57;76.20;;;;;;;5.36;100.00;93753.84;5090197;28;20229;-82
2021/12/10 08:23:49;;;;;;;123.30;67.50;;;;;;;5.35;100.00;93752.25;5094040;28;20201;-82
2021/12/10 08:26:18;;;;;;;120.37;64.90;;;;;;;5.33;100.00;93757.63;5088097;28;20205;-80
2021/12/10 08:28:47;;;;;;;137.27;73.43;;;;;;;5.39;100.00;93751.63;5079799;28;20211;-80
2021/12/10 08:31:22;;;;;;;137.87;69.00;;;;;;;5.10;100.00;93740.13;5078849;28;20280;-81
2021/12/10 08:33:52;;;;;;;139.07;73.13;;;;;;;5.18;100.00;93751.97;5084735;28;20197;-81
2021/12/10 08:36:33;;;;;;;149.87;75.40;;;;;;;5.24;100.00;93758.84;5097391;28;20185;-80
2021/12/10 08:39:08;;;;;;;146.70;76.17;;;;;;;5.35;100.00;93757.41;5088574;28;20220;-81
2021/12/10 08:41:37;;;;;;;159.20;81.70;;;;;;;5.31;100.00;93753.69;5094873;28;20219;-81
2021/12/10 08:44:07;;;;;;;146.40;73.90;;;;;;;5.40;100.00;93735.16;5081012;28;20205;-81
2021/12/10 08:46:38;;;;;;;141.73;68.63;;;;;;;5.55;100.00;93740.81;5090049;28;20732;-81
2021/12/10 08:49:07;;;;;;;131.10;65.27;;;;;;;5.44;100.00;93718.31;5097653;28;20208;-81
2021/12/10 08:51:40;;;;;;;126.07;63.23;;;;;;;5.68;100.00;93725.22;5093466;28;20209;-81
2021/12/10 08:54:10;;;;;;;126.50;62.03;;;;;;;5.93;100.00;93739.94;5088533;28;20546;-82
2021/12/10 08:56:39;;;;;;;125.47;62.73;;;;;;;6.05;100.00;93754.50;5085646;28;20262;-80
2021/12/10 08:59:08;;;;;;;134.37;67.80;;;;;;;6.10;100.00;93740.97;5096134;28;20664;-80
2021/12/10 09:01:41;;;;;;;131.60;66.63;;;;;;;6.14;100.00;93748.09;5085458;28;20222;-81
2021/12/10 09:04:11;;;;;;;127.37;63.40;;;;;;;6.17;100.00;93745.09;5088340;28;20229;-81
2021/12/10 09:06:43;;;;;;;132.13;63.50;;;;;;;5.81;100.00;93716.63;5095938;28;20654;-81
2021/12/10 09:09:13;;;;;;;127.07;61.97;;;;;;;5.99;100.00;93752.00;5096706;28;20250;-82
2021/12/10 09:11:50;;;;;;;127.20;62.63;;;;;;;6.00;100.00;93754.34;5077535;28;20201;-80
2021/12/10 09:14:21;;;;;;;136.50;63.57;;;;;;;6.08;100.00;93750.72;5096926;28;20260;-79
2021/12/10 09:16:51;;;;;;;122.00;60.43;;;;;;;6.26;100.00;93735.28;5098943;28;20190;-79
2021/12/10 09:19:20;;;;;;;115.93;58.03;;;;;;;6.28;100.00;93735.84;5093340;28;20202;-80
2021/12/10 09:21:48;;;;;;;116.87;58.63;;;;;;;6.34;100.00;93734.19;5091998;28;20221;-81
2021/12/10 09:24:20;;;;;;;122.87;60.47;;;;;;;6.23;100.00;93691.84;5098401;28;20211;-80
2021/12/10 09:26:52;;;;;;;125.63;62.60;;;;;;;6.29;100.00;93732.28;5098082;28;21031;-79
2021/12/10 09:29:20;;;;;;;125.30;60.13;;;;;;;6.36;100.00;93735.56;5086778;28;20595;-80
2021/12/10 09:31:48;;;;;;;134.33;66.37;;;;;;;6.31;100.00;93743.16;5093549;28;20200;-80
2021/12/10 09:34:19;;;;;;;133.70;70.93;;;;;;;6.36;100.00;93730.41;5095560;28;20195;-81
2021/12/10 09:36:48;;;;;;;144.70;77.93;;;;;;;6.60;100.00;93734.72;5087430;28;20669;-84
2021/12/10 09:39:18;;;;;;;153.30;80.10;;;;;;;6.76;100.00;93704.91;5090662;28;20214;-83
2021/12/10 09:41:47;;;;;;;152.43;76.30;;;;;;;6.74;100.00;93686.28;5086607;28;20289;-80
2021/12/10 09:44:17;;;;;;;208.13;107.43;;;;;;;6.83;100.00;93703.06;5092314;28;20211;-79
2021/12/10 09:46:47;;;;;;;195.13;99.90;;;;;;;6.87;100.00;93698.25;5094704;28;20245;-83
2021/12/10 09:49:17;;;;;;;195.73;98.43;;;;;;;6.84;100.00;93692.50;5097640;28;20211;-82
2021/12/10 09:51:49;;;;;;;206.80;105.07;;;;;;;6.95;100.00;93703.88;5079241;28;20212;-80
2021/12/10 09:54:20;;;;;;;184.57;92.90;;;;;;;6.71;100.00;93697.03;5084648;28;20226;-79
2021/12/10 09:56:52;;;;;;;167.20;79.90;;;;;;;6.70;100.00;93704.00;5094847;28;20576;-79
2021/12/10 09:59:21;;;;;;;182.50;85.13;;;;;;;6.90;100.00;93700.38;5095340;28;20198;-80
2021/12/10 10:01:52;;;;;;;165.93;80.30;;;;;;;7.40;100.00;93688.72;5096719;28;20220;-82
2021/12/10 10:04:28;;;;;;;143.83;70.17;;;;;;;9.15;100.00;93690.09;5088055;28;20201;-80
2021/12/10 10:07:04;;;;;;;134.47;66.73;;;;;;;10.60;100.00;93689.94;5094445;28;20210;-80
2021/12/10 10:09:33;;;;;;;130.40;62.20;;;;;;;11.01;100.00;93686.00;5090876;28;20259;-79
2021/12/10 10:12:05;;;;;;;107.37;55.57;;;;;;;11.99;98.40;93671.81;5088152;28;20276;-81
2021/12/10 10:14:33;;;;;;;98.90;52.27;;;;;;;12.89;92.50;93661.06;5095120;28;20197;-79
2021/12/10 10:17:01;;;;;;;89.07;48.80;;;;;;;13.30;88.74;93693.28;5095528;28;20192;-80
2021/12/10 10:19:31;;;;;;;90.00;48.47;;;;;;;13.94;86.27;93698.81;5097151;28;20201;-78
2021/12/10 10:21:59;;;;;;;84.03;46.33;;;;;;;15.08;83.65;93690.19;5093265;28;20272;-78
2021/12/10 10:24:30;;;;;;;68.80;39.93;;;;;;;16.17;78.09;93694.22;5082457;28;20648;-78
2021/12/10 10:27:05;;;;;;;69.57;42.13;;;;;;;16.10;77.16;93685.91;5091160;28;20280;-79
2021/12/10 10:29:36;;;;;;;62.50;37.47;;;;;;;16.54;75.27;93683.13;5089710;28;20199;-79
2021/12/10 10:32:10;;;;;;;58.97;35.33;;;;;;;16.75;74.87;93677.41;5083617;28;20576;-78
2021/12/10 10:34:43;;;;;;;58.93;35.03;;;;;;;17.13;73.77;93662.50;5084489;28;20193;-80
2021/12/10 10:37:11;;;;;;;54.37;34.33;;;;;;;17.24;73.36;93671.81;5091299;28;20200;-82
2021/12/10 10:39:41;;;;;;;56.20;36.53;;;;;;;17.62;72.71;93656.88;5090514;28;20205;-80
2021/12/10 10:42:14;;;;;;;53.03;33.80;;;;;;;18.04;71.16;93640.16;5093553;28;20225;-81
2021/12/10 10:44:43;;;;;;;56.67;36.50;;;;;;;17.58;71.00;93672.41;5096044;28;20207;-81
2021/12/10 10:47:11;;;;;;;77.50;45.47;;;;;;;16.40;74.21;93660.16;5093600;28;20246;-81
2021/12/10 10:49:42;;;;;;;86.53;50.07;;;;;;;15.81;75.16;93644.69;5090839;28;21088;-80
2021/12/10 10:52:17;;;;;;;82.80;52.07;;;;;;;15.58;76.99;93660.38;5080058;28;20197;-81
2021/12/10 10:54:45;;;;;;;87.93;53.07;;;;;;;14.21;80.65;93650.44;5086153;28;20239;-83
2021/12/10 10:57:24;;;;;;;93.57;55.07;;;;;;;13.02;85.47;93657.94;5083419;28;20227;-86
2021/12/10 10:59:56;;;;;;;73.47;43.33;;;;;;;12.82;88.50;93644.84;5088389;28;20200;-80
2021/12/10 11:02:29;;;;;;;71.47;41.70;;;;;;;12.52;89.73;93632.50;5092411;28;20209;-83
2021/12/10 11:05:10;;;;;;;72.73;43.20;;;;;;;12.24;91.23;93638.88;5091560;28;20197;-80
2021/12/10 11:07:46;;;;;;;66.87;41.50;;;;;;;11.88;92.99;93630.09;5092232;28;20204;-81
2021/12/10 11:10:14;;;;;;;68.90;41.03;;;;;;;11.38;96.19;93620.06;5093079;28;20222;-80
2021/12/10 11:12:44;;;;;;;70.73;42.33;;;;;;;11.08;97.17;93611.97;5092997;28;20627;-80
2021/12/10 11:15:16;;;;;;;80.53;45.70;;;;;;;10.96;98.57;93631.38;5076057;28;20835;-80
2021/12/10 11:17:47;;;;;;;83.27;47.97;;;;;;;10.66;100.00;93629.22;5090562;28;20201;-80
2021/12/10 11:20:20;;;;;;;73.27;42.60;;;;;;;10.10;100.00;93614.78;5092778;28;20200;-79
2021/12/10 11:22:50;;;;;;;75.23;43.07;;;;;;;9.79;100.00;93631.72;5091212;28;20306;-78
2021/12/10 11:25:20;;;;;;;62.13;37.30;;;;;;;9.55;100.00;93617.38;5084468;28;20261;-80
2021/12/10 11:27:49;;;;;;;60.73;36.13;;;;;;;9.41;100.00;93632.47;5090811;28;20193;-77
2021/12/10 11:30:19;;;;;;;61.50;35.00;;;;;;;9.33;100.00;93638.03;5091427;28;20258;-78
2021/12/10 11:32:49;;;;;;;58.80;35.27;;;;;;;9.55;100.00;93614.78;5090314;28;20204;-79
2021/12/10 11:35:22;;;;;;;47.70;29.30;;;;;;;10.33;100.00;93604.19;5084713;28;20209;-80